Time;durP1;ratioP1;P1;durP2;ratioP2;P2;SDS_P1;SDS_P2;PMS_P1;PMS_P2;Temp;Humidity;BMP_temperature;BMP_pressure;BME280_temperature;BME280_humidity;BME280_pressure;Samples;Min_cycle;Max_cycle;Signal;HPM_P1;HPM_P2
2022/10/06 00:01:17;;;;;;;1.20;0.30;;;;;;;15.90;46.00;101770.03;7393830;19;20078;-61
2022/10/06 00:03:44;;;;;;;4.47;0.30;;;;;;;15.99;45.92;101774.56;7392155;19;20006;-61
2022/10/06 00:06:16;;;;;;;1.27;0.40;;;;;;;15.97;46.27;101779.63;7392722;19;20016;-61
2022/10/06 00:08:44;;;;;;;2.30;0.32;;;;;;;16.12;46.15;101775.25;7392864;19;20010;-61
2022/10/06 00:11:12;;;;;;;1.20;0.35;;;;;;;15.99;46.28;101783.63;7392743;19;20073;-60
2022/10/06 00:13:37;;;;;;;2.35;0.70;;;;;;;16.06;46.18;101805.03;7394185;19;20023;-61
2022/10/06 00:16:11;;;;;;;3.28;0.40;;;;;;;15.78;46.76;101816.09;7393799;19;20454;-63
2022/10/06 00:18:37;;;;;;;1.75;0.38;;;;;;;15.82;46.92;101811.50;7390430;19;20002;-62
2022/10/06 00:21:03;;;;;;;2.05;0.38;;;;;;;15.86;47.22;101804.13;7391924;19;20421;-63
2022/10/06 00:23:28;;;;;;;1.63;0.40;;;;;;;15.91;47.38;101810.19;7392796;19;20121;-63
2022/10/06 00:25:54;;;;;;;1.58;0.50;;;;;;;15.98;47.41;101803.25;7390497;19;20030;-61
2022/10/06 00:28:20;;;;;;;1.27;0.50;;;;;;;16.06;47.39;101807.78;7390877;19;20369;-61
2022/10/06 00:30:45;;;;;;;2.40;0.55;;;;;;;15.99;48.11;101799.34;7393957;19;20026;-62
2022/10/06 00:33:14;;;;;;;4.50;0.65;;;;;;;15.84;48.60;101812.72;7393096;19;20112;-61
2022/10/06 00:35:42;;;;;;;2.83;0.60;;;;;;;15.88;49.11;101813.66;7392878;19;19998;-62
2022/10/06 00:38:10;;;;;;;3.15;0.63;;;;;;;15.86;49.10;101818.69;7390858;19;20032;-61
2022/10/06 00:40:46;;;;;;;3.40;0.80;;;;;;;15.87;49.21;101817.53;7393400;19;20042;-61
2022/10/06 00:43:44;;;;;;;3.03;0.82;;;;;;;15.84;49.47;101818.25;7392032;19;20518;-62
2022/10/06 00:46:33;;;;;;;3.42;0.93;;;;;;;15.63;50.24;101825.91;7390717;19;20471;-61
2022/10/06 00:49:19;;;;;;;5.43;0.75;;;;;;;15.67;50.04;101824.09;7390540;19;20041;-61
2022/10/06 00:51:50;;;;;;;2.63;0.50;;;;;;;15.77;49.69;101834.56;7392368;19;20017;-61
2022/10/06 00:54:16;;;;;;;7.55;1.17;;;;;;;15.77;49.30;101833.78;7392266;19;20002;-61
2022/10/06 00:56:42;;;;;;;4.20;0.85;;;;;;;15.68;49.60;101840.25;7390235;19;20006;-61
2022/10/06 00:59:10;;;;;;;3.42;0.70;;;;;;;15.66;49.31;101842.53;7391134;19;20074;-61
2022/10/06 01:01:37;;;;;;;3.72;0.73;;;;;;;15.74;49.39;101849.03;7392561;19;19999;-62
2022/10/06 01:04:08;;;;;;;4.25;0.60;;;;;;;15.87;48.87;101853.31;7392060;19;20002;-62
2022/10/06 01:06:50;;;;;;;3.83;0.70;;;;;;;15.73;49.05;101859.25;7391230;19;20140;-62
2022/10/06 01:09:17;;;;;;;4.43;0.77;;;;;;;15.79;48.80;101857.03;7391009;19;20016;-62
2022/10/06 01:11:46;;;;;;;2.53;0.70;;;;;;;15.71;48.96;101861.56;7392373;19;19995;-62
2022/10/06 01:14:18;;;;;;;3.97;1.15;;;;;;;15.63;49.15;101873.53;7390478;19;20006;-63
2022/10/06 01:16:48;;;;;;;2.15;0.50;;;;;;;15.70;48.72;101870.97;7391540;19;20086;-62
2022/10/06 01:19:34;;;;;;;2.97;0.60;;;;;;;15.70;48.74;101876.47;7388890;19;20013;-62
2022/10/06 01:22:04;;;;;;;5.05;0.90;;;;;;;15.69;48.71;101879.56;7388873;19;20003;-62
2022/10/06 01:24:30;;;;;;;4.00;0.80;;;;;;;15.63;48.79;101886.47;7390170;19;20006;-62
2022/10/06 01:26:57;;;;;;;3.28;0.52;;;;;;;15.54;48.76;101889.34;7390747;19;20002;-62
2022/10/06 01:29:23;;;;;;;5.82;1.10;;;;;;;15.50;48.76;101889.22;7390503;19;20026;-61
2022/10/06 01:31:49;;;;;;;3.08;0.80;;;;;;;15.57;48.46;101907.09;7393962;19;20062;-61
2022/10/06 01:34:14;;;;;;;3.05;0.95;;;;;;;15.52;48.89;101902.66;7390878;19;20028;-62
2022/10/06 01:36:40;;;;;;;3.55;0.52;;;;;;;15.65;48.25;101900.69;7391510;19;20010;-62
2022/10/06 01:39:06;;;;;;;6.68;1.13;;;;;;;15.64;48.28;101899.09;7390237;19;20002;-63
2022/10/06 01:41:33;;;;;;;6.68;0.82;;;;;;;15.64;48.44;101908.13;7391339;19;20703;-62
2022/10/06 01:43:59;;;;;;;4.03;0.63;;;;;;;15.59;48.70;101915.81;7390732;19;20002;-63
2022/10/06 01:46:27;;;;;;;4.05;0.77;;;;;;;15.63;48.48;101922.22;7388518;19;20470;-62
2022/10/06 01:48:52;;;;;;;8.48;1.25;;;;;;;15.64;48.40;101927.41;7390091;19;20005;-63
2022/10/06 01:51:18;;;;;;;5.00;0.98;;;;;;;15.46;48.65;101926.03;7390655;19;20066;-63
2022/10/06 01:53:43;;;;;;;4.90;0.70;;;;;;;15.52;48.57;101933.69;7390673;19;20003;-63
2022/10/06 01:56:09;;;;;;;6.93;0.90;;;;;;;15.36;48.92;101936.38;7388977;19;20014;-63
2022/10/06 01:58:34;;;;;;;5.72;1.00;;;;;;;15.46;48.77;101937.84;7387672;19;19994;-62
2022/10/06 02:01:08;;;;;;;5.20;1.25;;;;;;;15.47;48.62;101944.94;7396359;19;20463;-63
2022/10/06 02:03:34;;;;;;;6.22;1.10;;;;;;;15.41;48.84;101946.34;7397931;19;20003;-63
2022/10/06 02:06:00;;;;;;;4.18;1.23;;;;;;;15.22;49.04;101948.91;7395947;19;20467;-63
2022/10/06 02:08:26;;;;;;;5.18;0.90;;;;;;;15.24;49.10;101952.09;7393635;19;20014;-62
2022/10/06 02:10:51;;;;;;;5.18;1.10;;;;;;;15.06;49.38;101948.78;7397574;19;20066;-60
2022/10/06 02:13:17;;;;;;;5.25;1.00;;;;;;;15.12;49.39;101956.47;7396982;19;20077;-62
2022/10/06 02:15:42;;;;;;;6.90;0.80;;;;;;;15.16;49.29;101954.63;7395502;19;20014;-60
2022/10/06 02:18:08;;;;;;;3.95;0.73;;;;;;;15.16;49.13;101968.38;7392981;19;19991;-60
2022/10/06 02:20:33;;;;;;;3.97;0.80;;;;;;;15.22;49.00;101966.19;7397320;19;20324;-60
2022/10/06 02:22:59;;;;;;;4.75;1.15;;;;;;;15.18;48.99;101971.59;7397751;19;19995;-60
2022/10/06 02:25:26;;;;;;;7.85;0.95;;;;;;;15.12;49.24;101969.41;7393759;19;19995;-61
2022/10/06 02:27:53;;;;;;;8.20;1.00;;;;;;;15.24;48.81;101976.84;7395016;19;19991;-61
2022/10/06 02:30:19;;;;;;;6.90;1.20;;;;;;;15.21;48.81;101983.03;7394909;19;20339;-61
2022/10/06 02:32:45;;;;;;;8.43;1.10;;;;;;;15.15;49.13;101988.78;7396918;19;20002;-60
2022/10/06 02:35:11;;;;;;;4.85;0.90;;;;;;;15.21;48.82;101980.28;7396346;19;19999;-60
2022/10/06 02:37:39;;;;;;;7.05;1.00;;;;;;;15.14;49.16;101998.16;7393290;19;20451;-61
2022/10/06 02:40:05;;;;;;;2.92;0.82;;;;;;;15.14;49.13;101992.66;7395826;19;20020;-61
2022/10/06 02:42:30;;;;;;;6.35;0.90;;;;;;;15.16;48.85;102012.38;7397029;19;20507;-61
2022/10/06 02:44:58;;;;;;;6.45;1.50;;;;;;;15.06;49.29;102014.78;7396787;19;20447;-61
2022/10/06 02:47:23;;;;;;;7.38;1.05;;;;;;;15.13;48.93;102006.75;7395010;19;20058;-60
2022/10/06 02:49:49;;;;;;;8.48;1.30;;;;;;;15.09;49.05;102019.59;7396197;19;20006;-61
2022/10/06 02:52:15;;;;;;;5.65;0.90;;;;;;;15.10;49.09;102024.75;7395057;19;20459;-60
2022/10/06 02:54:56;;;;;;;5.97;0.98;;;;;;;15.12;49.04;102027.94;7392296;19;20018;-60
2022/10/06 02:57:29;;;;;;;7.88;1.30;;;;;;;15.10;48.87;102035.75;7395008;19;20022;-60
2022/10/06 02:59:54;;;;;;;4.70;0.90;;;;;;;15.09;48.75;102031.38;7395923;19;20132;-60
2022/10/06 03:02:20;;;;;;;6.57;1.20;;;;;;;15.00;49.18;102049.94;7394446;19;20425;-60
2022/10/06 03:04:45;;;;;;;10.35;1.30;;;;;;;15.03;49.02;102045.69;7396312;19;19990;-60
2022/10/06 03:07:11;;;;;;;6.50;1.15;;;;;;;14.93;49.23;102044.19;7393059;19;20001;-60
2022/10/06 03:09:36;;;;;;;5.88;1.05;;;;;;;14.92;49.28;102050.84;7395129;19;19991;-60
2022/10/06 03:12:02;;;;;;;7.80;1.27;;;;;;;15.02;48.65;102055.91;7394805;19;20002;-60
2022/10/06 03:14:27;;;;;;;7.00;1.13;;;;;;;14.96;48.91;102068.25;7395562;19;20030;-60
2022/10/06 03:16:55;;;;;;;5.65;1.17;;;;;;;14.91;48.89;102072.03;7395689;19;19995;-60
2022/10/06 03:19:21;;;;;;;5.97;1.20;;;;;;;15.02;48.51;102071.59;7395068;19;20013;-59
2022/10/06 03:21:47;;;;;;;7.22;1.40;;;;;;;15.05;48.27;102077.22;7395964;19;19998;-60
2022/10/06 03:24:13;;;;;;;11.05;2.55;;;;;;;14.62;49.34;102082.00;7392394;19;20351;-60
2022/10/06 03:26:41;;;;;;;9.20;1.38;;;;;;;14.58;49.45;102097.56;7392704;19;20037;-60
2022/10/06 03:29:07;;;;;;;11.25;1.52;;;;;;;14.55;49.31;102108.41;7392710;19;19995;-60
2022/10/06 03:31:33;;;;;;;14.00;1.65;;;;;;;14.34;49.66;102100.19;7395576;19;20066;-59
2022/10/06 03:33:59;;;;;;;6.55;1.25;;;;;;;14.39;49.62;102106.25;7394828;19;20019;-60
2022/10/06 03:36:28;;;;;;;10.30;1.52;;;;;;;14.47;49.24;102107.34;7394885;19;20475;-60
2022/10/06 03:38:53;;;;;;;6.32;1.20;;;;;;;14.29;49.79;102112.16;7393541;19;20090;-60
2022/10/06 03:41:25;;;;;;;7.03;1.33;;;;;;;14.29;49.75;102116.88;7395352;19;20003;-59
2022/10/06 03:43:53;;;;;;;8.80;1.35;;;;;;;14.30;49.55;102124.78;7395367;19;20002;-59
2022/10/06 03:46:23;;;;;;;7.93;1.48;;;;;;;14.07;49.92;102130.56;7391039;19;20001;-61
2022/10/06 03:48:51;;;;;;;11.48;1.50;;;;;;;14.21;49.77;102137.75;7392981;19;19987;-60
2022/10/06 03:51:20;;;;;;;8.95;1.33;;;;;;;14.38;49.22;102134.88;7394165;19;20031;-60
2022/10/06 03:53:50;;;;;;;9.27;1.20;;;;;;;14.27;49.00;102141.91;7394983;19;20465;-60
2022/10/06 03:56:19;;;;;;;8.13;1.65;;;;;;;14.14;49.33;102142.97;7391080;19;20047;-60
2022/10/06 03:58:49;;;;;;;6.63;1.52;;;;;;;14.21;48.94;102154.22;7393891;19;20155;-60
2022/10/06 04:01:16;;;;;;;11.90;1.50;;;;;;;14.17;48.93;102159.59;7393995;19;20076;-60
2022/10/06 04:03:42;;;;;;;9.25;1.33;;;;;;;14.17;48.80;102165.06;7394231;19;19999;-60
2022/10/06 04:06:16;;;;;;;8.30;1.52;;;;;;;14.20;48.35;102172.66;7391857;19;20011;-60
2022/10/06 04:08:42;;;;;;;10.55;1.55;;;;;;;14.17;48.60;102169.78;7393771;19;20006;-60
2022/10/06 04:11:11;;;;;;;10.43;1.80;;;;;;;14.00;48.82;102168.72;7393208;19;20003;-60
2022/10/06 04:13:38;;;;;;;8.52;1.80;;;;;;;14.12;48.34;102178.19;7393765;19;20002;-60
2022/10/06 04:16:11;;;;;;;12.07;1.50;;;;;;;14.17;48.14;102181.56;7393485;19;20010;-61
2022/10/06 04:18:37;;;;;;;11.02;1.83;;;;;;;14.22;47.97;102183.31;7390450;19;20451;-60
2022/10/06 04:21:03;;;;;;;10.95;1.90;;;;;;;14.31;47.85;102178.56;7391970;19;20003;-60
2022/10/06 04:23:29;;;;;;;8.57;1.27;;;;;;;14.23;47.54;102187.66;7389685;19;20007;-60
2022/10/06 04:25:59;;;;;;;10.32;1.88;;;;;;;14.19;47.72;102201.25;7391723;19;20002;-60
2022/10/06 04:28:24;;;;;;;13.88;1.95;;;;;;;14.12;47.81;102194.69;7389297;19;20004;-60
2022/10/06 04:31:00;;;;;;;9.30;1.27;;;;;;;14.14;47.61;102201.44;7392966;19;20031;-60
2022/10/06 04:33:33;;;;;;;10.45;1.55;;;;;;;14.21;47.40;102211.88;7392899;19;20003;-60
2022/10/06 04:36:04;;;;;;;14.27;2.10;;;;;;;14.20;47.38;102218.53;7392432;19;20015;-59
2022/10/06 04:38:35;;;;;;;13.02;2.00;;;;;;;14.14;47.46;102219.84;7389514;19;20494;-60
2022/10/06 04:41:11;;;;;;;8.85;1.65;;;;;;;14.16;47.30;102225.81;7392449;19;20475;-59
2022/10/06 04:43:37;;;;;;;9.88;2.10;;;;;;;14.13;47.57;102229.22;7392326;19;19998;-59
2022/10/06 04:46:04;;;;;;;9.60;1.60;;;;;;;14.03;47.49;102244.94;7390335;19;20015;-60
2022/10/06 04:48:30;;;;;;;12.55;1.83;;;;;;;14.12;47.42;102238.59;7388505;19;19998;-60
2022/10/06 04:51:00;;;;;;;9.82;2.03;;;;;;;14.07;47.47;102245.06;7392995;19;20333;-60
2022/10/06 04:53:27;;;;;;;12.70;1.80;;;;;;;14.11;47.32;102257.03;7391781;19;20017;-62
2022/10/06 04:56:02;;;;;;;11.50;1.60;;;;;;;13.93;47.69;102264.53;7391401;19;20018;-61
2022/10/06 04:58:33;;;;;;;9.65;1.80;;;;;;;13.92;47.46;102264.84;7388879;19;20014;-60
2022/10/06 05:00:59;;;;;;;10.02;1.70;;;;;;;14.00;47.34;102259.31;7392608;19;19998;-59
2022/10/06 05:03:27;;;;;;;9.23;1.73;;;;;;;14.07;47.13;102269.78;7390573;19;20003;-59
2022/10/06 05:06:04;;;;;;;14.23;2.05;;;;;;;13.97;47.45;102270.94;7390534;19;19998;-59
2022/10/06 05:08:31;;;;;;;8.75;1.35;;;;;;;13.91;47.75;102276.94;7390479;19;20005;-60
2022/10/06 05:11:01;;;;;;;6.72;1.13;;;;;;;13.96;47.28;102285.84;7390934;19;20567;-60
2022/10/06 05:13:27;;;;;;;8.15;1.40;;;;;;;13.97;47.46;102292.91;7390757;19;20006;-60
2022/10/06 05:15:57;;;;;;;10.05;1.42;;;;;;;13.88;47.71;102305.88;7391088;19;20032;-60
2022/10/06 05:18:22;;;;;;;8.90;1.48;;;;;;;13.99;47.74;102301.63;7389949;19;20010;-60
2022/10/06 05:20:56;;;;;;;14.82;1.63;;;;;;;13.83;47.73;102304.09;7391203;19;19995;-60
2022/10/06 05:23:22;;;;;;;7.78;1.60;;;;;;;13.68;48.06;102307.34;7392144;19;20031;-60
2022/10/06 05:25:55;;;;;;;11.30;1.60;;;;;;;13.80;47.76;102321.19;7389958;19;20070;-61
2022/10/06 05:28:22;;;;;;;8.63;1.50;;;;;;;13.95;47.64;102330.88;7387328;19;20475;-60
2022/10/06 05:30:57;;;;;;;13.52;2.38;;;;;;;13.93;47.63;102330.41;7390358;19;20451;-60
2022/10/06 05:33:24;;;;;;;11.90;1.80;;;;;;;13.96;47.24;102340.72;7391409;19;19999;-60
2022/10/06 05:36:04;;;;;;;7.20;1.50;;;;;;;13.91;47.75;102340.09;7390141;19;19998;-60
2022/10/06 05:38:29;;;;;;;8.40;1.50;;;;;;;13.75;47.78;102348.00;7387006;19;20003;-59
2022/10/06 05:41:12;;;;;;;10.20;1.77;;;;;;;13.87;47.46;102348.16;7391686;19;20471;-60
2022/10/06 05:43:39;;;;;;;10.20;1.75;;;;;;;13.77;48.07;102359.47;7389754;19;20385;-60
2022/10/06 05:46:07;;;;;;;8.68;1.75;;;;;;;13.78;47.89;102367.38;7390011;19;19995;-60
2022/10/06 05:48:33;;;;;;;10.40;2.08;;;;;;;13.84;47.78;102366.09;7387860;19;20003;-60
2022/10/06 05:51:08;;;;;;;9.50;1.77;;;;;;;13.78;47.84;102377.56;7390541;19;20035;-60
2022/10/06 05:53:35;;;;;;;10.02;1.63;;;;;;;13.76;47.94;102375.13;7389643;19;20648;-60
2022/10/06 05:56:13;;;;;;;9.43;1.40;;;;;;;13.73;48.03;102377.69;7388093;19;20006;-61
2022/10/06 05:58:44;;;;;;;10.85;1.40;;;;;;;13.79;47.82;102387.38;7389573;19;20019;-61
2022/10/06 06:01:21;;;;;;;11.52;1.83;;;;;;;13.80;47.92;102389.00;7388751;19;20006;-61
2022/10/06 06:04:02;;;;;;;12.85;2.22;;;;;;;13.83;47.91;102396.63;7390950;19;20008;-60
2022/10/06 06:06:30;;;;;;;7.72;1.60;;;;;;;13.82;47.91;102400.44;7387579;19;20003;-64
2022/10/06 06:09:07;;;;;;;8.10;1.67;;;;;;;13.79;47.83;102401.09;7389145;19;19999;-62
2022/10/06 06:11:36;;;;;;;8.95;1.67;;;;;;;13.84;47.95;102409.19;7390756;19;20020;-62
2022/10/06 06:14:04;;;;;;;11.98;1.70;;;;;;;13.72;47.89;102420.00;7389878;19;20007;-62
2022/10/06 06:16:37;;;;;;;11.43;1.77;;;;;;;13.82;47.87;102430.63;7389952;19;20002;-61
2022/10/06 06:19:04;;;;;;;9.85;1.67;;;;;;;13.70;47.96;102431.28;7389570;19;20011;-61
2022/10/06 06:21:30;;;;;;;12.48;1.85;;;;;;;13.81;47.91;102438.06;7390614;19;20467;-60
2022/10/06 06:23:56;;;;;;;8.82;1.60;;;;;;;13.86;47.37;102442.59;7390380;19;20019;-61
2022/10/06 06:26:24;;;;;;;12.10;1.60;;;;;;;13.72;47.89;102436.47;7363763;19;20007;-61
2022/10/06 06:28:51;;;;;;;13.50;1.80;;;;;;;13.74;47.67;102442.44;7388789;19;19999;-61
2022/10/06 06:31:20;;;;;;;12.75;2.17;;;;;;;13.86;47.35;102450.84;7386256;19;20007;-61
2022/10/06 06:33:47;;;;;;;8.48;1.55;;;;;;;13.84;47.57;102453.94;7390622;19;20019;-61
2022/10/06 06:36:19;;;;;;;10.80;1.80;;;;;;;13.91;47.28;102464.41;7389468;19;20006;-61
2022/10/06 06:38:52;;;;;;;11.45;1.85;;;;;;;13.93;47.32;102467.66;7339285;19;79111;-61
2022/10/06 06:41:21;;;;;;;10.00;1.92;;;;;;;13.73;47.88;102473.72;7389487;19;20027;-61
2022/10/06 06:43:47;;;;;;;10.25;1.65;;;;;;;13.82;47.55;102469.88;7389926;19;20011;-61
2022/10/06 06:46:14;;;;;;;9.55;1.63;;;;;;;13.72;47.36;102472.13;7389649;19;20061;-61
2022/10/06 06:48:40;;;;;;;10.52;2.10;;;;;;;13.77;47.56;102485.69;7394461;19;20022;-61
2022/10/06 06:51:07;;;;;;;9.68;1.80;;;;;;;13.76;47.36;102484.06;7394982;19;20054;-61
2022/10/06 06:53:33;;;;;;;12.00;1.67;;;;;;;13.79;47.26;102499.88;7397079;19;20026;-61
2022/10/06 06:55:59;;;;;;;13.80;2.15;;;;;;;13.76;47.57;102493.13;7394761;19;20002;-61
2022/10/06 06:58:24;;;;;;;12.77;1.90;;;;;;;13.98;46.65;102496.88;7396407;19;20562;-61
2022/10/06 07:00:50;;;;;;;12.13;1.77;;;;;;;14.08;46.70;102510.28;7398769;19;20007;-61
2022/10/06 07:03:20;;;;;;;11.68;2.17;;;;;;;13.99;46.56;102507.50;7399958;19;20360;-61
2022/10/06 07:05:46;;;;;;;8.32;1.50;;;;;;;13.99;46.60;102509.44;7399270;19;20003;-61
2022/10/06 07:08:14;;;;;;;11.65;2.05;;;;;;;13.85;46.86;102515.09;7396409;19;19995;-60
2022/10/06 07:10:40;;;;;;;8.57;1.63;;;;;;;13.88;47.13;102525.44;7399531;19;20339;-61
2022/10/06 07:13:06;;;;;;;9.43;2.05;;;;;;;13.90;46.70;102528.66;7398875;19;20030;-61
2022/10/06 07:26:52;;;;;;;11.00;1.80;;;;;;;14.16;46.23;102542.41;7396158;19;20023;-60
2022/10/06 07:29:18;;;;;;;15.70;2.05;;;;;;;14.27;46.09;102559.34;7397619;19;19994;-61
2022/10/06 07:31:44;;;;;;;15.05;2.20;;;;;;;14.17;46.33;102565.19;7398943;19;20084;-60
2022/10/06 07:34:09;;;;;;;13.80;2.10;;;;;;;14.12;46.25;102582.63;7396418;19;20451;-60
2022/10/06 07:36:35;;;;;;;11.52;1.80;;;;;;;14.19;46.04;102569.19;7398998;19;20030;-61
2022/10/06 07:39:00;;;;;;;11.20;1.67;;;;;;;14.21;46.12;102577.13;7397437;19;20688;-60
2022/10/06 07:41:28;;;;;;;10.68;2.10;;;;;;;14.20;45.93;102581.81;7396263;19;20002;-60
2022/10/06 07:43:53;;;;;;;13.77;1.92;;;;;;;14.24;45.97;102598.44;7325740;19;86844;-58
2022/10/06 07:46:19;;;;;;;8.60;1.95;;;;;;;14.35;45.86;102599.75;7392376;19;19999;-59
2022/10/06 07:48:47;;;;;;;11.00;2.17;;;;;;;14.27;46.09;102611.53;7395676;19;20345;-59
2022/10/06 07:51:17;;;;;;;12.10;1.70;;;;;;;14.26;46.02;102612.66;7392449;19;19994;-59
2022/10/06 07:53:49;;;;;;;9.68;2.05;;;;;;;14.27;45.97;102608.78;7394484;19;20001;-58
2022/10/06 07:56:19;;;;;;;8.35;1.58;;;;;;;14.31;45.84;102619.94;7394763;19;19994;-58
2022/10/06 07:58:48;;;;;;;12.20;2.17;;;;;;;14.24;46.43;102620.41;7393770;19;19995;-58
2022/10/06 08:01:17;;;;;;;14.68;1.90;;;;;;;14.52;45.81;102620.91;7393166;19;20482;-59
2022/10/06 08:03:44;;;;;;;11.23;1.80;;;;;;;14.60;45.64;102616.53;7392990;19;19995;-59
2022/10/06 08:06:13;;;;;;;14.18;2.25;;;;;;;14.60;45.60;102625.59;7390606;19;20006;-59
2022/10/06 08:08:39;;;;;;;10.90;2.03;;;;;;;14.41;46.04;102630.59;7393183;19;19999;-59
2022/10/06 08:11:07;;;;;;;10.63;1.90;;;;;;;14.53;45.73;102627.19;7392092;19;20002;-59
2022/10/06 08:13:35;;;;;;;11.23;1.92;;;;;;;14.51;45.74;102624.81;7392459;19;20005;-59
2022/10/06 08:16:05;;;;;;;9.38;1.90;;;;;;;14.61;45.76;102635.44;7394378;19;20011;-60
2022/10/06 08:18:30;;;;;;;14.60;2.33;;;;;;;14.64;45.72;102642.22;7391229;19;20471;-60
2022/10/06 08:20:57;;;;;;;10.00;1.92;;;;;;;14.63;45.83;102643.38;7393286;19;20026;-60
2022/10/06 08:23:23;;;;;;;9.77;1.80;;;;;;;14.61;45.34;102657.44;7389727;19;20078;-59
2022/10/06 08:25:50;;;;;;;14.82;2.13;;;;;;;14.57;45.69;102661.16;7392619;19;20022;-60
2022/10/06 08:28:16;;;;;;;12.27;2.00;;;;;;;14.68;45.29;102656.94;7390380;19;20009;-59
2022/10/06 08:30:42;;;;;;;13.98;2.08;;;;;;;14.90;44.89;102666.19;7392712;19;20332;-59
2022/10/06 08:33:07;;;;;;;10.32;1.95;;;;;;;14.83;45.20;102680.41;7390614;19;20338;-59
2022/10/06 08:35:34;;;;;;;15.00;2.17;;;;;;;14.77;45.43;102677.00;7394371;19;20002;-59
2022/10/06 08:38:00;;;;;;;12.10;1.70;;;;;;;14.82;45.35;102678.00;7392775;19;20006;-59
2022/10/06 08:40:27;;;;;;;10.98;2.03;;;;;;;14.83;44.97;102680.41;7392175;19;20344;-59
2022/10/06 08:42:55;;;;;;;9.60;1.70;;;;;;;14.90;45.08;102693.66;7391132;19;20007;-60
2022/10/06 08:45:25;;;;;;;9.10;1.77;;;;;;;14.96;44.98;102684.94;7392180;19;20014;-59
2022/10/06 08:48:00;;;;;;;12.60;2.15;;;;;;;15.00;44.76;102685.06;7391098;19;20006;-59
2022/10/06 08:50:28;;;;;;;13.60;2.33;;;;;;;15.09;44.82;102691.34;7392395;19;20022;-60
2022/10/06 08:53:17;;;;;;;11.27;1.80;;;;;;;15.05;44.66;102697.84;7390378;19;20052;-59
2022/10/06 08:56:18;;;;;;;15.88;2.30;;;;;;;15.03;44.81;102700.94;7390833;19;20470;-59
2022/10/06 08:58:49;;;;;;;9.20;1.70;;;;;;;14.86;45.20;102698.97;7391116;19;20050;-59
2022/10/06 09:01:24;;;;;;;14.15;2.10;;;;;;;15.16;44.37;102708.19;7390903;19;20009;-59
2022/10/06 09:03:53;;;;;;;12.90;2.03;;;;;;;15.33;44.26;102715.59;7392026;19;20483;-59
2022/10/06 09:06:36;;;;;;;11.43;1.90;;;;;;;15.22;44.27;102708.81;7389750;19;20009;-60
2022/10/06 09:09:20;;;;;;;13.77;2.10;;;;;;;15.38;44.06;102724.78;7391426;19;20070;-60
2022/10/06 09:11:55;;;;;;;14.77;2.75;;;;;;;15.25;44.36;102712.88;7391950;19;20006;-60
2022/10/06 09:14:38;;;;;;;17.17;2.42;;;;;;;15.28;44.28;102723.19;7392762;19;20007;-60
2022/10/06 09:17:10;;;;;;;11.50;2.05;;;;;;;15.19;44.09;102703.97;7392767;19;20006;-60
2022/10/06 09:19:44;;;;;;;16.65;1.95;;;;;;;15.25;43.71;102724.66;7390501;19;20482;-59
2022/10/06 09:22:16;;;;;;;13.85;2.00;;;;;;;15.45;43.70;102717.66;7390716;19;20003;-60
2022/10/06 09:24:48;;;;;;;11.30;1.98;;;;;;;15.58;43.43;102728.78;7392363;19;20077;-60
2022/10/06 09:27:16;;;;;;;13.70;2.30;;;;;;;15.50;43.54;102731.22;7391788;19;19999;-60
2022/10/06 09:29:42;;;;;;;14.52;2.88;;;;;;;15.40;43.47;102739.84;7390617;19;20032;-60
2022/10/06 09:32:09;;;;;;;13.80;2.08;;;;;;;15.43;43.57;102758.44;7388495;19;20006;-60
2022/10/06 09:34:40;;;;;;;11.15;2.55;;;;;;;15.49;43.05;102740.63;7391746;19;19998;-60
2022/10/06 09:37:09;;;;;;;12.18;1.90;;;;;;;15.09;43.76;102749.09;7389040;19;20022;-60
2022/10/06 09:39:38;;;;;;;9.25;1.90;;;;;;;15.36;43.09;102739.69;7388658;19;20460;-61
2022/10/06 09:42:27;;;;;;;16.83;2.58;;;;;;;15.62;42.67;102741.56;7391164;19;19999;-61
2022/10/06 09:44:56;;;;;;;12.98;2.20;;;;;;;15.70;42.79;102754.50;7390976;19;20014;-62
2022/10/06 09:47:27;;;;;;;11.20;1.90;;;;;;;15.90;42.25;102761.22;7390643;19;19999;-60
2022/10/06 09:50:23;;;;;;;13.70;2.50;;;;;;;15.96;41.76;102758.28;7390133;19;19999;-60
2022/10/06 09:53:04;;;;;;;10.07;1.88;;;;;;;15.89;42.14;102762.34;7388581;19;20127;-60
2022/10/06 09:55:36;;;;;;;12.30;1.67;;;;;;;15.92;41.66;102764.47;7391892;19;19995;-60
2022/10/06 09:58:22;;;;;;;13.18;2.20;;;;;;;16.24;41.35;102759.44;7390223;19;19998;-60
2022/10/06 10:00:55;;;;;;;17.42;2.25;;;;;;;16.14;41.21;102765.31;7388830;19;19995;-61
2022/10/06 10:03:22;;;;;;;15.25;1.75;;;;;;;15.67;41.65;102757.13;7388401;19;19999;-60
2022/10/06 10:05:50;;;;;;;10.98;1.95;;;;;;;15.81;41.77;102765.16;7390434;19;19999;-60
2022/10/06 10:08:24;;;;;;;12.27;1.60;;;;;;;16.09;41.13;102774.59;7389119;19;20272;-60
2022/10/06 10:12:23;;;;;;;13.02;1.83;;;;;;;16.13;40.18;102780.22;7390548;19;19991;-60
2022/10/06 10:13:58;;;;;;;8.73;2.03;;;;;;;15.90;40.88;102779.72;7390118;19;19991;-61
2022/10/06 10:16:25;;;;;;;14.05;1.98;;;;;;;15.90;41.02;102775.00;7390699;19;20013;-60
2022/10/06 10:18:51;;;;;;;9.70;1.90;;;;;;;16.05;40.75;102778.34;7389118;19;20002;-60
2022/10/06 10:21:34;;;;;;;10.63;1.73;;;;;;;16.04;40.67;102779.47;7393127;19;20015;-61
2022/10/06 10:24:04;;;;;;;9.52;1.50;;;;;;;16.09;40.59;102779.28;7394304;19;20015;-60
2022/10/06 10:26:48;;;;;;;13.02;2.03;;;;;;;15.99;40.15;102787.94;7395416;19;19995;-61
2022/10/06 10:29:34;;;;;;;10.88;1.80;;;;;;;15.97;39.76;102787.47;7394996;19;20015;-60
2022/10/06 10:32:21;;;;;;;14.35;2.63;;;;;;;16.07;39.66;102781.56;7396772;19;20007;-60
2022/10/06 10:34:53;;;;;;;11.85;1.73;;;;;;;16.09;40.21;102796.63;7397509;19;20007;-60
2022/10/06 10:37:27;;;;;;;11.80;2.13;;;;;;;16.08;39.72;102794.19;7395271;19;20006;-60
2022/10/06 10:39:52;;;;;;;9.32;1.67;;;;;;;16.19;39.96;102789.94;7394870;19;20002;-60
2022/10/06 10:42:30;;;;;;;8.80;1.50;;;;;;;16.27;39.29;102791.84;7395681;19;20007;-60
2022/10/06 10:45:01;;;;;;;7.40;1.27;;;;;;;16.25;39.00;102791.38;7396554;19;20003;-60
2022/10/06 10:47:33;;;;;;;7.78;1.45;;;;;;;16.17;38.99;102808.75;7396674;19;20006;-60
2022/10/06 10:50:18;;;;;;;8.70;1.48;;;;;;;16.37;38.32;102807.19;7395636;19;20340;-60
2022/10/06 10:52:47;;;;;;;8.38;1.45;;;;;;;16.31;37.83;102807.72;7393798;19;20003;-60
2022/10/06 10:55:17;;;;;;;6.57;1.08;;;;;;;16.29;38.23;102817.09;7396719;19;20003;-60
2022/10/06 10:57:44;;;;;;;8.55;1.50;;;;;;;16.33;38.34;102817.25;7395872;19;20038;-61
2022/10/06 11:00:18;;;;;;;9.95;1.30;;;;;;;16.33;38.17;102819.19;7396072;19;20483;-60
2022/10/06 11:02:44;;;;;;;9.10;1.80;;;;;;;16.37;38.07;102828.44;7394070;19;20002;-60
2022/10/06 11:05:25;;;;;;;6.13;1.30;;;;;;;16.37;37.89;102817.41;7396989;19;20007;-60
2022/10/06 11:07:54;;;;;;;7.93;1.77;;;;;;;16.53;38.07;102812.16;7395723;19;20007;-60
2022/10/06 11:10:25;;;;;;;11.00;1.48;;;;;;;16.35;38.25;102825.19;7395543;19;20080;-60
2022/10/06 11:13:14;;;;;;;7.97;1.50;;;;;;;16.43;37.67;102816.88;7394225;19;20007;-60
2022/10/06 11:15:52;;;;;;;6.85;1.50;;;;;;;16.49;37.66;102814.75;7396258;19;20360;-60
2022/10/06 11:18:24;;;;;;;7.13;1.27;;;;;;;16.46;37.79;102818.16;7394854;19;20010;-60
2022/10/06 11:20:57;;;;;;;9.85;1.80;;;;;;;16.44;37.99;102817.69;7396426;19;20013;-60
2022/10/06 11:23:29;;;;;;;13.80;1.67;;;;;;;16.71;37.59;102819.16;7392278;19;20074;-61
2022/10/06 11:26:23;;;;;;;9.95;1.63;;;;;;;16.89;36.54;102827.31;7394270;19;20505;-60
2022/10/06 11:28:56;;;;;;;;;;;;;;;16.85;35.83;102816.13;7394761;19;20345;-61
2022/10/06 11:31:50;;;;;;;8.15;1.60;;;;;;;16.83;36.19;102815.66;7394604;19;19946;-61
2022/10/06 11:34:16;;;;;;;4.88;1.40;;;;;;;16.87;36.77;102818.56;7393225;19;20015;-60
2022/10/06 11:36:51;;;;;;;6.40;1.40;;;;;;;16.57;36.17;102819.41;7395881;19;19990;-61
2022/10/06 11:39:31;;;;;;;10.73;1.98;;;;;;;16.64;36.77;102827.97;7394667;19;20070;-60
2022/10/06 11:42:22;;;;;;;7.53;1.25;;;;;;;16.68;35.91;102821.78;7392419;19;20002;-60
2022/10/06 11:45:15;;;;;;;6.28;1.40;;;;;;;16.71;36.35;102826.63;7392693;19;19991;-60
2022/10/06 11:48:17;;;;;;;9.68;1.80;;;;;;;16.77;36.58;102825.31;7393467;19;20503;-60